Time;durP1;ratioP1;P1;durP2;ratioP2;P2;SDS_P1;SDS_P2;PMS_P1;PMS_P2;Temp;Humidity;BMP_temperature;BMP_pressure;BME280_temperature;BME280_humidity;BME280_pressure;Samples;Min_cycle;Max_cycle;Signal;HPM_P1;HPM_P2
2021/03/22 00:02:05;;;;;;;;;;;;;;;-3.63;71.49;94976.05;1777176;81;20416;-62
2021/03/22 00:04:33;;;;;;;;;;;;;;;-3.59;71.96;94979.17;1777070;81;20439;-62
2021/03/22 00:07:01;;;;;;;;;;;;;;;-3.60;72.54;94974.86;1777421;81;20242;-62
2021/03/22 00:09:28;;;;;;;;;;;;;;;-3.57;72.10;94969.35;1777349;81;20163;-61
2021/03/22 00:11:55;;;;;;;;;;;;;;;-3.61;71.98;94971.39;1776924;81;20138;-62
2021/03/22 00:14:23;;;;;;;;;;;;;;;-3.61;71.98;94965.36;1777313;81;20238;-62
2021/03/22 00:16:50;;;;;;;;;;;;;;;-3.68;72.06;94964.75;1777263;81;20162;-61
2021/03/22 00:19:19;;;;;;;;;;;;;;;-3.68;71.56;94955.30;1777271;81;20146;-62
2021/03/22 00:21:46;;;;;;;;;;;;;;;-3.73;71.52;94953.92;1777067;81;20154;-61
2021/03/22 00:24:13;;;;;;;;;;;;;;;-3.83;71.28;94948.47;1776928;80;20151;-61
2021/03/22 00:26:40;;;;;;;;;;;;;;;-3.85;71.48;94947.16;1777204;81;20139;-61
2021/03/22 00:29:07;;;;;;;;;;;;;;;-3.90;71.26;94951.33;1777047;81;20147;-62
2021/03/22 00:31:35;;;;;;;;;;;;;;;-3.90;71.28;94949.17;1776993;81;20167;-61
2021/03/22 00:34:02;;;;;;;;;;;;;;;-3.77;71.22;94936.62;1777331;81;20147;-61
2021/03/22 00:36:29;;;;;;;;;;;;;;;-3.78;70.92;94935.28;1777188;81;20185;-61
2021/03/22 00:38:56;;;;;;;;;;;;;;;-3.89;71.64;94945.33;1777151;81;20135;-61
2021/03/22 00:41:24;;;;;;;;;;;;;;;-4.11;71.79;94942.59;1777134;81;20166;-62
2021/03/22 00:43:51;;;;;;;;;;;;;;;-4.06;71.85;94937.14;1776940;81;20417;-62
2021/03/22 00:46:18;;;;;;;;;;;;;;;-4.09;71.93;94937.49;1777231;81;20154;-61
2021/03/22 00:48:46;;;;;;;;;;;;;;;-4.05;71.40;94931.18;1777247;81;20159;-61
2021/03/22 00:51:14;;;;;;;;;;;;;;;-3.98;71.36;94934.38;1757725;81;20175;-61
2021/03/22 00:53:42;;;;;;;;;;;;;;;-3.94;71.18;94928.88;1777304;81;20151;-62
2021/03/22 00:56:09;;;;;;;;;;;;;;;-4.04;71.13;94931.63;1776967;81;20479;-62
2021/03/22 00:58:36;;;;;;;;;;;;;;;-4.10;71.17;94925.45;1776977;81;20135;-62
2021/03/22 01:01:03;;;;;;;;;;;;;;;-4.15;71.25;94922.33;1777211;81;20174;-62
2021/03/22 01:03:33;;;;;;;;;;;;;;;-4.17;71.37;94930.85;1776841;81;20202;-62
2021/03/22 01:06:05;;;;;;;;;;;;;;;-4.04;71.31;94914.88;1776995;81;20147;-61
2021/03/22 01:08:35;;;;;;;;;;;;;;;-3.97;71.03;94903.89;1777288;81;20158;-61
2021/03/22 01:11:08;;;;;;;;;;;;;;;-3.85;70.67;94898.61;1776803;81;20135;-62
2021/03/22 01:13:44;;;;;;;;;;;;;;;-3.82;70.57;94891.81;1777216;81;20154;-62
2021/03/22 01:16:15;;;;;;;;;;;;;;;-3.93;70.91;94888.12;1776863;80;20234;-61
2021/03/22 01:18:46;;;;;;;;;;;;;;;-4.13;70.51;94888.89;1776945;81;20150;-61
2021/03/22 01:21:23;;;;;;;;;;;;;;;-4.18;70.68;94893.92;1777065;81;20155;-62
2021/03/22 01:23:50;;;;;;;;;;;;;;;-4.16;70.74;94879.77;1776872;80;20179;-61
2021/03/22 01:26:20;;;;;;;;;;;;;;;-4.16;70.78;94887.50;1777006;81;20146;-62
2021/03/22 01:28:48;;;;;;;;;;;;;;;-4.16;71.08;94886.22;1776992;81;20170;-61
2021/03/22 01:31:16;;;;;;;;;;;;;;;-4.26;71.03;94886.42;1776811;81;20139;-62
2021/03/22 01:33:45;;;;;;;;;;;;;;;-4.31;71.45;94886.68;1777176;81;20407;-61
2021/03/22 01:36:25;;;;;;;;;;;;;;;-4.27;72.54;94880.79;1777392;81;20151;-62
2021/03/22 01:38:55;;;;;;;;;;;;;;;-4.19;71.92;94878.41;1776956;81;20139;-62
2021/03/22 01:41:31;;;;;;;;;;;;;;;-4.28;72.52;94886.79;1777129;81;20155;-62
2021/03/22 01:44:09;;;;;;;;;;;;;;;-4.32;71.72;94884.95;1777261;81;20202;-61
2021/03/22 01:46:44;;;;;;;;;;;;;;;-4.36;72.68;94885.69;1776888;81;20440;-61
2021/03/22 01:49:12;;;;;;;;;;;;;;;-4.36;72.52;94877.97;1776949;81;20135;-61
2021/03/22 01:51:40;;;;;;;;;;;;;;;-4.32;72.19;94876.36;1777231;81;20206;-61
2021/03/22 01:54:08;;;;;;;;;;;;;;;-4.22;71.76;94871.91;1757504;81;20425;-61
2021/03/22 01:56:47;;;;;;;;;;;;;;;-4.17;71.26;94872.47;1776982;81;20131;-61
2021/03/22 01:59:18;;;;;;;;;;;;;;;-4.20;71.01;94877.97;1776996;81;20143;-62
2021/03/22 02:01:48;;;;;;;;;;;;;;;-4.22;71.08;94874.48;1776794;80;20138;-62
2021/03/22 02:04:17;;;;;;;;;;;;;;;-4.10;71.14;94865.78;1777255;81;20246;-61
2021/03/22 02:06:45;;;;;;;;;;;;;;;-4.02;70.81;94860.39;1777077;81;20425;-62
2021/03/22 02:09:13;;;;;;;;;;;;;;;-4.03;70.49;94856.09;1776993;81;20432;-62
2021/03/22 02:11:40;;;;;;;;;;;;;;;-4.03;70.31;94862.53;1777093;81;20158;-62
2021/03/22 02:14:09;;;;;;;;;;;;;;;-4.04;70.22;94859.91;1776765;81;20143;-61
2021/03/22 02:16:58;;;;;;;;;;;;;;;-4.03;70.11;94859.95;1777012;81;20155;-61
2021/03/22 02:19:30;;;;;;;;;;;;;;;-4.13;69.76;94863.13;1777238;81;20131;-62
2021/03/22 02:22:30;;;;;;;;;;;;;;;-4.11;69.97;94853.72;1775293;80;20138;-61
2021/03/22 02:25:04;;;;;;;;;;;;;;;-4.25;70.08;94861.53;1776864;80;20150;-61
2021/03/22 02:28:04;;;;;;;;;;;;;;;-4.42;70.04;94847.78;1776687;81;20135;-62
2021/03/22 02:31:09;;;;;;;;;;;;;;;-4.68;70.60;94851.38;1776841;80;20158;-63
2021/03/22 02:33:49;;;;;;;;;;;;;;;-4.66;70.54;94854.45;1776403;80;20162;-63
2021/03/22 02:36:36;;;;;;;;;;;;;;;-4.79;70.85;94848.09;1776912;81;20143;-63
2021/03/22 02:39:03;;;;;;;;;;;;;;;-4.75;70.95;94845.60;1777551;81;20151;-63
2021/03/22 02:41:50;;;;;;;;;;;;;;;-4.77;71.05;94848.13;1776963;81;20154;-64
2021/03/22 02:44:26;;;;;;;;;;;;;;;-4.70;70.96;94850.46;1776763;80;20155;-63
2021/03/22 02:46:56;;;;;;;;;;;;;;;-4.80;71.28;94851.91;1777164;81;20419;-63
2021/03/22 02:49:27;;;;;;;;;;;;;;;-4.98;71.82;94856.13;1777242;81;20173;-63
2021/03/22 02:52:17;;;;;;;;;;;;;;;-5.07;71.97;94860.57;1777090;81;20135;-63
2021/03/22 02:55:01;;;;;;;;;;;;;;;-5.19;71.88;94852.92;1777092;81;20131;-63
2021/03/22 02:57:43;;;;;;;;;;;;;;;-5.20;71.92;94852.05;1776244;80;20135;-64
2021/03/22 03:00:26;;;;;;;;;;;;;;;-5.21;71.92;94854.18;1777078;81;20154;-63
2021/03/22 03:02:56;;;;;;;;;;;;;;;-5.17;71.79;94853.84;1777207;81;20155;-63
2021/03/22 03:05:27;;;;;;;;;;;;;;;-5.13;71.88;94845.40;1777189;81;20464;-63
2021/03/22 03:07:59;;;;;;;;;;;;;;;-5.10;71.44;94855.34;1777375;81;20135;-63
2021/03/22 03:10:28;;;;;;;;;;;;;;;-5.04;71.47;94852.07;1777245;81;20139;-63
2021/03/22 03:12:56;;;;;;;;;;;;;;;-5.00;71.46;94852.62;1776940;81;20131;-63
2021/03/22 03:15:25;;;;;;;;;;;;;;;-5.11;72.24;94847.19;1777370;81;20500;-64
2021/03/22 03:17:53;;;;;;;;;;;;;;;-5.19;72.88;94843.53;1777070;81;20158;-63
2021/03/22 03:20:26;;;;;;;;;;;;;;;-5.30;72.68;94843.19;1777067;81;20443;-63
2021/03/22 03:22:55;;;;;;;;;;;;;;;-5.29;73.11;94847.91;1777356;81;20237;-63
2021/03/22 03:25:23;;;;;;;;;;;;;;;-5.29;73.99;94844.95;1777151;80;20147;-63
2021/03/22 03:27:51;;;;;;;;;;;;;;;-5.33;73.43;94844.39;1777068;81;20463;-63
2021/03/22 03:30:23;;;;;;;;;;;;;;;-5.21;73.04;94837.46;1777265;81;20202;-63
2021/03/22 03:32:50;;;;;;;;;;;;;;;-5.07;72.73;94838.70;1776970;81;20139;-62
2021/03/22 03:35:21;;;;;;;;;;;;;;;-5.00;72.09;94837.19;1777248;81;20158;-61
2021/03/22 03:37:49;;;;;;;;;;;;;;;-4.91;72.01;94832.73;1777097;81;20440;-62
2021/03/22 03:40:29;;;;;;;;;;;;;;;-4.79;71.85;94830.08;1777001;81;20137;-61
2021/03/22 03:42:56;;;;;;;;;;;;;;;-4.72;71.57;94828.53;1777239;81;20150;-61
2021/03/22 03:45:25;;;;;;;;;;;;;;;-4.74;71.33;94827.61;1777148;81;20146;-62
2021/03/22 03:47:55;;;;;;;;;;;;;;;-4.65;71.26;94829.16;1775179;80;20155;-61
2021/03/22 03:50:25;;;;;;;;;;;;;;;-4.54;71.15;94818.27;1777224;81;20443;-61
2021/03/22 03:52:54;;;;;;;;;;;;;;;-4.46;70.82;94813.80;1776989;81;20155;-62
2021/03/22 03:55:23;;;;;;;;;;;;;;;-4.63;71.72;94821.06;1777290;81;20147;-61
2021/03/22 03:57:52;;;;;;;;;;;;;;;-4.78;72.57;94829.66;1776928;81;20139;-62
2021/03/22 04:00:38;;;;;;;;;;;;;;;-4.88;73.17;94833.68;1777060;81;20182;-61
2021/03/22 04:03:29;;;;;;;;;;;;;;;-4.80;72.99;94839.91;1777250;81;20166;-63
2021/03/22 04:06:04;;;;;;;;;;;;;;;-4.58;72.89;94836.22;1777014;81;20338;-63
2021/03/22 04:08:32;;;;;;;;;;;;;;;-4.41;72.19;94829.33;1777240;81;20139;-64
2021/03/22 04:11:02;;;;;;;;;;;;;;;-4.33;71.80;94829.14;1777233;81;20178;-63
2021/03/22 04:13:32;;;;;;;;;;;;;;;-4.30;71.79;94818.91;1777073;81;20186;-63
2021/03/22 04:16:00;;;;;;;;;;;;;;;-4.29;71.37;94825.79;1777005;81;20186;-63
2021/03/22 04:18:30;;;;;;;;;;;;;;;-4.22;71.49;94817.39;1776592;80;20198;-63
2021/03/22 04:20:57;;;;;;;;;;;;;;;-4.33;72.29;94821.80;1776780;81;20424;-63
2021/03/22 04:23:24;;;;;;;;;;;;;;;-4.44;73.31;94821.53;1757443;81;20139;-63
2021/03/22 04:25:51;;;;;;;;;;;;;;;-4.36;73.37;94825.17;1783739;80;20423;-63
2021/03/22 04:28:18;;;;;;;;;;;;;;;-4.38;73.61;94818.72;1785304;80;20154;-63
2021/03/22 04:30:45;;;;;;;;;;;;;;;-4.50;74.19;94820.97;1785587;80;20424;-63
2021/03/22 04:33:13;;;;;;;;;;;;;;;-4.36;73.60;94818.73;1785630;80;20432;-63
2021/03/22 04:35:41;;;;;;;;;;;;;;;-4.17;72.64;94816.22;1785785;80;20166;-63
2021/03/22 04:38:08;;;;;;;;;;;;;;;-4.15;72.64;94818.00;1785740;80;20131;-63
2021/03/22 04:40:35;;;;;;;;;;;;;;;-4.29;73.60;94820.64;1785481;80;20155;-63
2021/03/22 04:43:04;;;;;;;;;;;;;;;-4.32;73.13;94820.56;1785194;80;20150;-63
2021/03/22 04:45:31;;;;;;;;;;;;;;;-4.29;73.42;94818.06;1785762;80;20142;-63
2021/03/22 04:47:58;;;;;;;;;;;;;;;-4.23;73.29;94819.95;1785461;80;20135;-64
2021/03/22 04:50:27;;;;;;;;;;;;;;;-4.10;73.80;94812.10;1785782;80;20131;-63
2021/03/22 04:52:55;;;;;;;;;;;;;;;-4.02;73.35;94810.16;1759732;80;20142;-64
2021/03/22 04:55:24;;;;;;;;;;;;;;;-3.96;72.97;94802.98;1785484;80;20150;-64
2021/03/22 04:57:52;;;;;;;;;;;;;;;-4.00;73.08;94807.20;1785482;80;20166;-62
2021/03/22 05:00:26;;;;;;;;;;;;;;;-3.94;73.36;94802.18;1785470;80;20190;-62
2021/03/22 05:02:56;;;;;;;;;;;;;;;-3.94;73.25;94798.31;1785555;80;20428;-62
2021/03/22 05:05:26;;;;;;;;;;;;;;;-3.89;73.62;94800.14;1785708;80;20135;-62
2021/03/22 05:07:54;;;;;;;;;;;;;;;-3.80;73.43;94795.21;1785768;80;20400;-61
2021/03/22 05:10:25;;;;;;;;;;;;;;;-3.62;72.82;94798.20;1785498;80;20139;-65
2021/03/22 05:12:53;;;;;;;;;;;;;;;-3.40;71.68;94790.52;1785701;80;20131;-64
2021/03/22 05:15:20;;;;;;;;;;;;;;;-3.31;71.29;94785.97;1785451;80;20190;-65
2021/03/22 05:17:48;;;;;;;;;;;;;;;-3.20;71.07;94787.08;1785530;80;20423;-65
2021/03/22 05:20:29;;;;;;;;;;;;;;;-3.20;71.23;94791.34;1785450;80;20415;-65
2021/03/22 05:22:57;;;;;;;;;;;;;;;-3.12;70.94;94789.39;1785418;80;20432;-65
2021/03/22 05:25:25;;;;;;;;;;;;;;;-3.25;71.50;94792.56;1759476;80;20135;-65
2021/03/22 05:27:52;;;;;;;;;;;;;;;-3.31;72.06;94798.86;1785617;80;20145;-64
2021/03/22 05:30:21;;;;;;;;;;;;;;;-3.17;71.24;94792.30;1785479;80;20170;-65
2021/03/22 05:32:48;;;;;;;;;;;;;;;-3.01;70.74;94790.02;1784203;80;20210;-65
2021/03/22 05:35:20;;;;;;;;;;;;;;;-2.95;70.03;94793.61;1784010;80;20131;-66
2021/03/22 05:37:48;;;;;;;;;;;;;;;-3.00;70.11;94796.91;1783808;80;20139;-69
2021/03/22 05:40:28;;;;;;;;;;;;;;;-3.07;70.72;94801.09;1783857;80;20144;-71
2021/03/22 05:43:19;;;;;;;;;;;;;;;-3.10;70.78;94806.17;1783088;80;20123;-67
2021/03/22 05:46:07;;;;;;;;;;;;;;;-2.93;70.47;94804.80;1783945;80;20139;-69
2021/03/22 05:48:57;;;;;;;;;;;;;;;-2.73;69.34;94812.08;1744503;82;20412;-69
2021/03/22 05:51:34;;;;;;;;;;;;;;;-2.77;69.86;94810.27;1714786;84;20161;-67
2021/03/22 05:54:11;;;;;;;;;;;;;;;-2.82;69.90;94807.62;1713483;84;20148;-72
2021/03/22 05:56:54;;;;;;;;;;;;;;;-2.69;69.74;94803.14;1715121;83;20260;-66
2021/03/22 05:59:45;;;;;;;;;;;;;;;-2.48;69.57;94806.96;1715008;84;20144;-65
2021/03/22 06:02:28;;;;;;;;;;;;;;;-2.43;68.98;94808.78;1723387;83;20124;-69
2021/03/22 06:04:59;;;;;;;;;;;;;;;-2.25;68.53;94809.95;1723532;83;20156;-63
2021/03/22 06:07:27;;;;;;;;;;;;;;;-2.24;68.59;94803.53;1723385;83;20446;-65
2021/03/22 06:10:00;;;;;;;;;;;;;;;-2.10;67.70;94799.02;1723377;83;20161;-63
2021/03/22 06:12:34;;;;;;;;;;;;;;;-1.97;67.24;94804.43;1723630;83;20125;-62
2021/03/22 06:15:10;;;;;;;;;;;;;;;-1.83;66.90;94798.60;1723461;83;20132;-62
2021/03/22 06:17:47;;;;;;;;;;;;;;;-1.82;66.38;94804.20;1722129;83;20144;-64
2021/03/22 06:20:27;;;;;;;;;;;;;;;-1.76;67.06;94800.02;1723299;83;20177;-62
2021/03/22 06:22:58;;;;;;;;;;;;;;;-1.56;66.73;94801.61;1721549;83;20502;-62
2021/03/22 06:25:31;;;;;;;;;;;;;;;-1.47;65.77;94805.17;1722048;83;20148;-62
2021/03/22 06:28:14;;;;;;;;;;;;;;;-1.43;65.63;94809.13;1720675;83;20231;-61
2021/03/22 06:31:00;;;;;;;;;;;;;;;-1.38;64.92;94805.31;1720772;83;20137;-62
2021/03/22 06:33:31;;;;;;;;;;;;;;;-1.23;64.84;94810.70;1720501;83;20414;-62
2021/03/22 06:35:58;;;;;;;;;;;;;;;-1.20;64.59;94802.97;1720691;83;20140;-63
2021/03/22 06:38:25;;;;;;;;;;;;;;;-1.22;64.61;94805.95;1700130;83;20156;-62
2021/03/22 06:40:53;;;;;;;;;;;;;;;-1.20;64.39;94802.11;1720446;83;20157;-63
2021/03/22 06:43:23;;;;;;;;;;;;;;;-1.14;64.45;94806.92;1720622;83;20168;-63
2021/03/22 06:45:56;;;;;;;;;;;;;;;-1.05;64.47;94802.31;1720606;83;20443;-62
2021/03/22 06:48:29;;;;;;;;;;;;;;;-0.93;63.04;94806.79;1718361;83;20141;-64
2021/03/22 06:51:07;;;;;;;;;;;;;;;-0.79;62.50;94800.47;1720589;83;20124;-62
2021/03/22 06:53:43;;;;;;;;;;;;;;;-0.73;61.80;94805.70;1720963;83;20251;-62
2021/03/22 06:56:17;;;;;;;;;;;;;;;-0.68;61.38;94798.86;1720493;83;20148;-63
2021/03/22 06:58:46;;;;;;;;;;;;;;;-0.56;61.63;94798.14;1707202;83;20153;-70
2021/03/22 07:01:16;;;;;;;;;;;;;;;-0.51;61.25;94793.88;1693228;84;20144;-66
2021/03/22 07:03:44;;;;;;;;;;;;;;;-0.33;61.88;94800.56;1693543;84;20248;-64
2021/03/22 07:06:21;;;;;;;;;;;;;;;-0.19;61.52;94794.21;1693410;84;20236;-62
2021/03/22 07:08:49;;;;;;;;;;;;;;;-0.40;60.43;94797.47;1693424;85;20235;-62
2021/03/22 07:11:22;;;;;;;;;;;;;;;-0.45;60.79;94805.19;1693314;84;20125;-62
2021/03/22 07:13:56;;;;;;;;;;;;;;;-0.20;61.34;94801.95;1693280;84;20461;-61
2021/03/22 07:16:27;;;;;;;;;;;;;;;0.00;61.48;94796.56;1693220;84;20136;-64
2021/03/22 07:19:17;;;;;;;;;;;;;;;0.12;60.98;94799.23;1693360;85;20129;-61
2021/03/22 07:21:48;;;;;;;;;;;;;;;0.05;58.67;94796.17;1692424;83;20176;-63
2021/03/22 07:24:43;;;;;;;;;;;;;;;0.18;60.43;94798.00;1710500;82;20122;-63
2021/03/22 07:27:16;;;;;;;;;;;;;;;0.14;58.69;94797.53;1719534;82;20188;-61
2021/03/22 07:30:06;;;;;;;;;;;;;;;0.25;59.95;94802.80;1712621;84;20165;-62
2021/03/22 07:32:58;;;;;;;;;;;;;;;0.45;60.68;94796.90;1712768;83;20137;-61
2021/03/22 07:35:45;;;;;;;;;;;;;;;0.76;60.18;94796.26;1712770;83;20144;-62
2021/03/22 07:38:43;;;;;;;;;;;;;;;1.04;60.25;94797.27;1713149;84;20145;-64
2021/03/22 07:41:18;;;;;;;;;;;;;;;1.25;58.99;94796.50;1713139;84;20139;-62
2021/03/22 07:44:09;;;;;;;;;;;;;;;1.46;59.11;94794.84;1712934;84;20161;-61
2021/03/22 07:46:49;;;;;;;;;;;;;;;1.68;57.48;94791.44;1713232;84;20145;-62
2021/03/22 07:49:38;;;;;;;;;;;;;;;1.81;55.59;94795.37;1713164;84;20129;-60
2021/03/22 07:52:14;;;;;;;;;;;;;;;2.01;55.83;94801.91;1712952;84;20423;-62
2021/03/22 07:55:00;;;;;;;;;;;;;;;2.16;54.59;94805.84;1713168;84;20125;-62
2021/03/22 07:57:37;;;;;;;;;;;;;;;2.20;54.54;94804.13;1712991;84;20144;-62
2021/03/22 08:00:21;;;;;;;;;;;;;;;2.22;54.61;94804.97;1712868;84;20410;-61
2021/03/22 08:03:17;;;;;;;;;;;;;;;2.30;53.89;94802.81;1713177;84;20157;-61
2021/03/22 08:06:11;;;;;;;;;;;;;;;2.35;52.29;94807.59;1712687;83;20398;-62
2021/03/22 08:09:07;;;;;;;;;;;;;;;2.47;51.83;94802.83;1712984;84;20145;-61
2021/03/22 08:11:54;;;;;;;;;;;;;;;2.53;50.82;94804.55;1703051;84;20128;-66
2021/03/22 08:14:33;;;;;;;;;;;;;;;2.71;50.26;94796.72;1850395;77;20123;-61
2021/03/22 08:17:22;;;;;;;;;;;;;;;2.77;50.39;94798.44;1820485;79;20411;-60
2021/03/22 08:20:14;;;;;;;;;;;;;;;2.91;49.70;94795.83;1820321;78;20118;-62
2021/03/22 08:22:54;;;;;;;;;;;;;;;3.01;48.52;94796.23;1820748;79;20144;-61
2021/03/22 08:25:30;;;;;;;;;;;;;;;3.04;44.25;94798.39;1820744;79;20161;-61
2021/03/22 08:28:30;;;;;;;;;;;;;;;3.10;44.99;94794.03;1820553;79;20117;-61
2021/03/22 08:31:20;;;;;;;;;;;;;;;3.14;45.02;94789.25;1820434;79;20153;-63
2021/03/22 08:33:52;;;;;;;;;;;;;;;3.22;44.82;94788.78;1820564;78;20134;-64
2021/03/22 08:36:47;;;;;;;;;;;;;;;3.24;43.84;94793.56;1820748;79;20482;-63
2021/03/22 08:39:22;;;;;;;;;;;;;;;3.30;45.18;94787.04;1820751;79;20220;-62
2021/03/22 08:41:56;;;;;;;;;;;;;;;3.38;44.28;94790.92;1820761;78;20148;-60
2021/03/22 08:44:27;;;;;;;;;;;;;;;3.45;42.50;94786.98;1820619;79;20153;-61
2021/03/22 08:47:18;;;;;;;;;;;;;;;3.54;43.50;94791.72;1820679;79;20137;-59
2021/03/22 08:49:54;;;;;;;;;;;;;;;3.56;43.02;94794.75;1820703;79;20157;-61
2021/03/22 08:52:28;;;;;;;;;;;;;;;3.63;42.60;94789.08;1820705;79;20157;-63
2021/03/22 08:55:02;;;;;;;;;;;;;;;3.63;42.75;94792.98;1820399;79;20141;-61
2021/03/22 08:57:32;;;;;;;;;;;;;;;3.62;43.17;94793.40;1820430;79;20141;-62
2021/03/22 09:00:24;;;;;;;;;;;;;;;3.64;43.42;94794.27;1820580;78;20134;-61
2021/03/22 09:03:02;;;;;;;;;;;;;;;3.64;42.91;94793.41;1820706;78;20132;-63
2021/03/22 09:05:33;;;;;;;;;;;;;;;3.59;45.09;94799.94;1812246;79;20398;-61
2021/03/22 09:08:21;;;;;;;;;;;;;;;3.48;44.00;94804.35;1800817;79;20134;-61
2021/03/22 09:10:51;;;;;;;;;;;;;;;3.36;44.02;94800.48;1804648;79;20398;-61
2021/03/22 09:13:27;;;;;;;;;;;;;;;3.00;43.15;94805.80;1815818;78;20129;-61
2021/03/22 09:16:03;;;;;;;;;;;;;;;2.95;43.66;94806.24;1796261;79;20478;-63
2021/03/22 09:18:32;;;;;;;;;;;;;;;2.97;43.34;94803.62;1796442;80;20220;-61
2021/03/22 09:21:06;;;;;;;;;;;;;;;2.68;42.96;94799.77;1796711;79;20130;-61
2021/03/22 09:23:39;;;;;;;;;;;;;;;2.78;43.64;94808.01;1795776;79;20427;-61
2021/03/22 09:26:09;;;;;;;;;;;;;;;2.74;43.34;94807.12;1796188;80;20117;-61
2021/03/22 09:28:45;;;;;;;;;;;;;;;2.65;43.04;94810.20;1795825;79;20117;-60
2021/03/22 09:31:16;;;;;;;;;;;;;;;2.55;42.52;94814.10;1795838;80;20403;-60
2021/03/22 09:34:03;;;;;;;;;;;;;;;2.54;43.27;94810.19;1795844;79;20141;-60
2021/03/22 09:36:39;;;;;;;;;;;;;;;2.55;43.05;94822.36;1795827;79;20141;-60
2021/03/22 09:39:22;;;;;;;;;;;;;;;2.54;43.50;94816.70;1781278;80;20138;-61
2021/03/22 09:42:14;;;;;;;;;;;;;;;2.51;43.72;94819.31;1796280;79;20224;-60
2021/03/22 09:44:58;;;;;;;;;;;;;;;2.55;43.74;94819.31;1795560;79;20165;-60
2021/03/22 09:47:31;;;;;;;;;;;;;;;2.54;44.22;94816.25;1795933;80;20191;-61
2021/03/22 09:50:05;;;;;;;;;;;;;;;2.42;43.85;94818.89;1782445;80;20130;-61
2021/03/22 09:52:40;;;;;;;;;;;;;;;2.41;44.29;94829.28;1794826;79;20113;-62
2021/03/22 09:55:30;;;;;;;;;;;;;;;2.47;45.01;94830.17;1782585;80;20117;-63
2021/03/22 09:58:00;;;;;;;;;;;;;;;2.58;45.85;94823.65;1795727;79;20126;-61
2021/03/22 10:00:34;;;;;;;;;;;;;;;2.66;46.35;94831.45;1782518;80;20134;-62
2021/03/22 10:03:29;;;;;;;;;;;;;;;2.67;45.80;94826.27;1796160;80;20176;-61
2021/03/22 10:05:59;;;;;;;;;;;;;;;2.65;46.08;94824.09;1796131;80;20129;-61
2021/03/22 10:08:30;;;;;;;;;;;;;;;2.63;47.82;94827.56;1796266;79;20232;-61
2021/03/22 10:11:00;;;;;;;;;;;;;;;2.78;47.48;94819.73;1795846;80;20122;-61
2021/03/22 10:13:31;;;;;;;;;;;;;;;2.94;47.14;94827.08;1796734;79;20387;-61
2021/03/22 10:16:04;;;;;;;;;;;;;;;2.84;46.01;94827.97;1798054;79;20419;-61
2021/03/22 10:18:38;;;;;;;;;;;;;;;2.84;46.70;94830.57;1798044;79;20122;-62
2021/03/22 10:21:17;;;;;;;;;;;;;;;2.69;45.88;94827.55;1798381;80;20141;-61
2021/03/22 10:23:57;;;;;;;;;;;;;;;2.59;45.54;94834.48;1798261;79;20130;-62
2021/03/22 10:26:39;;;;;;;;;;;;;;;2.61;46.90;94837.97;1798107;80;20410;-61
2021/03/22 10:29:25;;;;;;;;;;;;;;;2.55;46.17;94835.38;1798585;79;20145;-61
2021/03/22 10:32:15;;;;;;;;;;;;;;;2.71;46.37;94844.91;1797885;80;20185;-62
2021/03/22 10:34:46;;;;;;;;;;;;;;;2.71;45.57;94842.30;1798137;80;20176;-62
2021/03/22 10:37:18;;;;;;;;;;;;;;;2.66;45.31;94835.36;1798299;79;20137;-62
2021/03/22 10:39:48;;;;;;;;;;;;;;;2.79;45.87;94839.69;1798000;79;20140;-62
2021/03/22 10:42:29;;;;;;;;;;;;;;;2.98;46.59;94840.55;1798045;80;20132;-62
2021/03/22 10:44:57;;;;;;;;;;;;;;;3.01;45.51;94835.33;1798212;80;20125;-62
2021/03/22 10:47:29;;;;;;;;;;;;;;;3.08;46.94;94835.75;1797857;80;20133;-61
2021/03/22 10:50:13;;;;;;;;;;;;;;;3.15;45.10;94843.10;1797860;79;20137;-62
2021/03/22 10:52:40;;;;;;;;;;;;;;;3.30;45.45;94840.48;1797763;79;20141;-61
2021/03/22 10:55:27;;;;;;;;;;;;;;;3.35;44.70;94843.05;1798152;80;20120;-61
2021/03/22 10:57:56;;;;;;;;;;;;;;;3.34;44.40;94834.81;1797392;79;20193;-62
2021/03/22 11:00:33;;;;;;;;;;;;;;;3.68;44.64;94830.36;1798171;79;20128;-61
2021/03/22 11:03:02;;;;;;;;;;;;;;;3.74;44.84;94832.06;1798362;79;20117;-62
2021/03/22 11:05:41;;;;;;;;;;;;;;;3.76;42.33;94831.18;1783341;80;20165;-62
2021/03/22 11:08:21;;;;;;;;;;;;;;;3.78;43.55;94821.61;1782431;80;20138;-62
2021/03/22 11:10:48;;;;;;;;;;;;;;;3.89;43.30;94821.10;1798042;80;20126;-62
2021/03/22 11:13:18;;;;;;;;;;;;;;;3.76;42.73;94827.70;1797979;79;20156;-61
2021/03/22 11:15:47;;;;;;;;;;;;;;;3.73;43.50;94831.20;1797762;79;20410;-62
2021/03/22 11:18:17;;;;;;;;;;;;;;;3.58;44.03;94826.02;1798014;79;20117;-62
2021/03/22 11:20:48;;;;;;;;;;;;;;;3.57;44.35;94825.60;1798004;79;20402;-62
2021/03/22 11:23:27;;;;;;;;;;;;;;;3.47;46.25;94833.89;1798143;79;20137;-61
2021/03/22 11:26:00;;;;;;;;;;;;;;;3.43;44.73;94836.96;1798326;79;20118;-62
2021/03/22 11:28:30;;;;;;;;;;;;;;;3.41;45.27;94828.71;1793885;79;20140;-61
2021/03/22 11:31:20;;;;;;;;;;;;;;;3.44;46.51;94831.30;1797942;79;20153;-61
2021/03/22 11:34:03;;;;;;;;;;;;;;;3.43;47.94;94833.49;1798273;79;20125;-61
2021/03/22 11:36:40;;;;;;;;;;;;;;;3.56;46.92;94830.41;1798144;79;20118;-61
2021/03/22 11:39:21;;;;;;;;;;;;;;;3.42;47.43;94835.20;1798348;79;20125;-61
2021/03/22 11:41:58;;;;;;;;;;;;;;;3.53;46.59;94832.58;1798064;80;20395;-62
2021/03/22 11:44:36;;;;;;;;;;;;;;;3.53;47.90;94838.21;1798401;79;20403;-61
2021/03/22 11:47:22;;;;;;;;;;;;;;;3.33;48.52;94840.47;1797887;79;20134;-62
2021/03/22 11:49:51;;;;;;;;;;;;;;;3.36;46.87;94833.08;1798133;79;20130;-62
2021/03/22 11:52:28;;;;;;;;;;;;;;;3.32;48.76;94841.77;1782449;80;20118;-61
2021/03/22 11:55:07;;;;;;;;;;;;;;;3.36;48.69;94833.94;1797639;79;20144;-62
2021/03/22 11:57:37;;;;;;;;;;;;;;;3.17;49.54;94844.84;1797891;80;20117;-62
2021/03/22 12:00:27;;;;;;;;;;;;;;;3.06;48.79;94840.09;1798016;79;20129;-61
2021/03/22 12:03:07;;;;;;;;;;;;;;;2.78;50.54;94841.87;1798198;79;20153;-62
2021/03/22 12:05:39;;;;;;;;;;;;;;;2.79;50.26;94843.16;1797874;79;20141;-62
2021/03/22 12:08:39;;;;;;;;;;;;;;;2.74;52.02;94847.50;1798280;79;20118;-61
2021/03/22 12:11:19;;;;;;;;;;;;;;;2.73;51.41;94840.57;1798036;79;20133;-62
2021/03/22 12:13:48;;;;;;;;;;;;;;;2.47;51.04;94847.09;1796759;79;20399;-62
2021/03/22 12:16:22;;;;;;;;;;;;;;;2.29;52.19;94845.34;1793433;80;20141;-62
2021/03/22 12:18:52;;;;;;;;;;;;;;;2.22;52.48;94844.90;1792921;79;20236;-61
2021/03/22 12:21:20;;;;;;;;;;;;;;;2.23;53.95;94852.27;1792999;79;20122;-61
2021/03/22 12:23:49;;;;;;;;;;;;;;;2.16;53.59;94857.45;1793510;79;20129;-62
2021/03/22 12:26:19;;;;;;;;;;;;;;;2.02;54.30;94847.91;1793504;79;20216;-61
2021/03/22 12:28:57;;;;;;;;;;;;;;;1.87;54.82;94854.80;1793796;79;20145;-61
2021/03/22 12:31:25;;;;;;;;;;;;;;;1.84;55.74;94855.20;1793885;79;20180;-62
2021/03/22 12:33:56;;;;;;;;;;;;;;;1.75;56.32;94860.39;1794348;80;20141;-62
2021/03/22 12:36:24;;;;;;;;;;;;;;;1.69;57.19;94863.41;1794269;80;20117;-61
2021/03/22 12:38:52;;;;;;;;;;;;;;;1.58;57.61;94854.68;1794154;80;20268;-62
2021/03/22 12:41:26;;;;;;;;;;;;;;;1.38;58.14;94866.73;1794434;80;20149;-61
2021/03/22 12:43:54;;;;;;;;;;;;;;;1.35;58.80;94866.28;1794304;79;20129;-61
2021/03/22 12:46:22;;;;;;;;;;;;;;;1.30;59.21;94870.16;1784929;80;20165;-61
2021/03/22 12:48:49;;;;;;;;;;;;;;;1.33;59.33;94865.40;1794260;79;20121;-61
2021/03/22 12:51:17;;;;;;;;;;;;;;;1.26;60.07;94861.02;1794282;79;20137;-62
2021/03/22 12:53:44;;;;;;;;;;;;;;;1.36;59.29;94868.44;1794168;79;20138;-62
2021/03/22 12:56:13;;;;;;;;;;;;;;;1.45;59.05;94868.50;1794132;79;20422;-62
2021/03/22 12:58:40;;;;;;;;;;;;;;;1.44;58.79;94866.77;1794161;79;20125;-61
2021/03/22 13:01:07;;;;;;;;;;;;;;;1.46;58.62;94870.22;1794091;79;20130;-61
2021/03/22 13:03:35;;;;;;;;;;;;;;;1.48;57.73;94865.47;1794424;80;20137;-61
2021/03/22 13:06:03;;;;;;;;;;;;;;;1.41;56.78;94870.63;1794257;79;20406;-62
2021/03/22 13:08:30;;;;;;;;;;;;;;;1.36;55.26;94872.34;1794519;79;20398;-61
2021/03/22 13:10:58;;;;;;;;;;;;;;;1.30;55.45;94879.69;1794248;80;20121;-61
2021/03/22 13:13:26;;;;;;;;;;;;;;;1.30;55.40;94874.48;1794139;80;20141;-61
2021/03/22 13:15:56;;;;;;;;;;;;;;;1.29;55.12;94877.96;1793905;79;20133;-62
2021/03/22 13:18:30;;;;;;;;;;;;;;;1.27;55.05;94878.37;1794308;79;20399;-61
2021/03/22 13:21:00;;;;;;;;;;;;;;;1.29;55.64;94880.56;1794499;79;20128;-62
2021/03/22 13:23:28;;;;;;;;;;;;;;;1.27;55.47;94884.88;1794396;79;20130;-61
2021/03/22 13:25:56;;;;;;;;;;;;;;;1.29;55.91;94894.41;1794194;80;20133;-61
2021/03/22 13:28:27;;;;;;;;;;;;;;;1.27;56.29;94890.06;1794212;79;20439;-61